sensor_id;sensor_type;location;lat;lon;timestamp;P1;durP1;ratioP1;P2;durP2;ratioP2
18170;SDS011;9210;48.358;10.902;2023-04-30T00:02:07;7.43;;;4.73;;
18170;SDS011;9210;48.358;10.902;2023-04-30T00:04:36;8.07;;;4.60;;
18170;SDS011;9210;48.358;10.902;2023-04-30T00:07:04;7.17;;;4.57;;
18170;SDS011;9210;48.358;10.902;2023-04-30T00:09:33;8.93;;;4.83;;
18170;SDS011;9210;48.358;10.902;2023-04-30T00:12:02;6.67;;;4.43;;
18170;SDS011;9210;48.358;10.902;2023-04-30T00:14:30;7.83;;;4.80;;
18170;SDS011;9210;48.358;10.902;2023-04-30T00:17:00;8.00;;;4.53;;
18170;SDS011;9210;48.358;10.902;2023-04-30T00:19:28;8.10;;;4.40;;
18170;SDS011;9210;48.358;10.902;2023-04-30T00:21:57;7.60;;;4.67;;
18170;SDS011;9210;48.358;10.902;2023-04-30T00:24:26;6.87;;;4.40;;
18170;SDS011;9210;48.358;10.902;2023-04-30T00:26:55;6.60;;;4.33;;
18170;SDS011;9210;48.358;10.902;2023-04-30T00:29:23;8.30;;;4.97;;
18170;SDS011;9210;48.358;10.902;2023-04-30T00:31:52;7.03;;;4.67;;
18170;SDS011;9210;48.358;10.902;2023-04-30T00:34:22;9.23;;;5.10;;
18170;SDS011;9210;48.358;10.902;2023-04-30T00:36:50;8.47;;;4.40;;
18170;SDS011;9210;48.358;10.902;2023-04-30T00:39:18;8.13;;;4.50;;
18170;SDS011;9210;48.358;10.902;2023-04-30T00:41:47;8.10;;;4.70;;
18170;SDS011;9210;48.358;10.902;2023-04-30T00:44:15;8.50;;;4.73;;
18170;SDS011;9210;48.358;10.902;2023-04-30T00:46:44;8.17;;;5.00;;
18170;SDS011;9210;48.358;10.902;2023-04-30T00:49:12;7.03;;;4.70;;
18170;SDS011;9210;48.358;10.902;2023-04-30T00:51:42;9.53;;;4.97;;
18170;SDS011;9210;48.358;10.902;2023-04-30T00:54:11;7.63;;;4.40;;
18170;SDS011;9210;48.358;10.902;2023-04-30T00:56:39;8.23;;;5.17;;
18170;SDS011;9210;48.358;10.902;2023-04-30T00:59:08;8.77;;;4.83;;
18170;SDS011;9210;48.358;10.902;2023-04-30T01:01:38;8.90;;;4.80;;
18170;SDS011;9210;48.358;10.902;2023-04-30T01:04:07;7.50;;;4.40;;
18170;SDS011;9210;48.358;10.902;2023-04-30T01:06:36;8.67;;;4.93;;
18170;SDS011;9210;48.358;10.902;2023-04-30T01:09:06;9.50;;;5.27;;
18170;SDS011;9210;48.358;10.902;2023-04-30T01:11:40;8.80;;;4.70;;
18170;SDS011;9210;48.358;10.902;2023-04-30T01:14:12;7.27;;;4.73;;
18170;SDS011;9210;48.358;10.902;2023-04-30T01:16:45;7.83;;;4.67;;
18170;SDS011;9210;48.358;10.902;2023-04-30T01:19:19;8.40;;;4.50;;
18170;SDS011;9210;48.358;10.902;2023-04-30T01:21:52;8.60;;;5.30;;
18170;SDS011;9210;48.358;10.902;2023-04-30T01:27:12;9.00;;;5.17;;
18170;SDS011;9210;48.358;10.902;2023-04-30T01:29:44;7.83;;;5.03;;
18170;SDS011;9210;48.358;10.902;2023-04-30T01:32:12;9.83;;;6.10;;
18170;SDS011;9210;48.358;10.902;2023-04-30T01:34:41;8.80;;;5.67;;
18170;SDS011;9210;48.358;10.902;2023-04-30T01:37:11;8.30;;;5.60;;
18170;SDS011;9210;48.358;10.902;2023-04-30T01:39:49;10.80;;;6.33;;
18170;SDS011;9210;48.358;10.902;2023-04-30T01:42:19;9.87;;;5.97;;
18170;SDS011;9210;48.358;10.902;2023-04-30T01:44:53;8.60;;;5.87;;
18170;SDS011;9210;48.358;10.902;2023-04-30T01:47:29;10.57;;;6.23;;
18170;SDS011;9210;48.358;10.902;2023-04-30T01:50:04;11.00;;;6.23;;
18170;SDS011;9210;48.358;10.902;2023-04-30T01:52:38;9.13;;;5.83;;
18170;SDS011;9210;48.358;10.902;2023-04-30T01:55:07;11.80;;;6.47;;
18170;SDS011;9210;48.358;10.902;2023-04-30T01:57:37;12.57;;;6.30;;
18170;SDS011;9210;48.358;10.902;2023-04-30T02:00:08;10.37;;;6.43;;
18170;SDS011;9210;48.358;10.902;2023-04-30T02:02:40;10.07;;;6.13;;
18170;SDS011;9210;48.358;10.902;2023-04-30T02:05:08;10.50;;;6.93;;
18170;SDS011;9210;48.358;10.902;2023-04-30T02:07:38;12.27;;;7.13;;
18170;SDS011;9210;48.358;10.902;2023-04-30T02:10:07;10.83;;;7.23;;
18170;SDS011;9210;48.358;10.902;2023-04-30T02:12:37;9.00;;;5.87;;
18170;SDS011;9210;48.358;10.902;2023-04-30T02:15:06;10.97;;;6.97;;
18170;SDS011;9210;48.358;10.902;2023-04-30T02:17:36;11.43;;;6.70;;
18170;SDS011;9210;48.358;10.902;2023-04-30T02:20:05;10.47;;;6.67;;
18170;SDS011;9210;48.358;10.902;2023-04-30T02:22:34;11.23;;;6.37;;
18170;SDS011;9210;48.358;10.902;2023-04-30T02:25:03;10.20;;;6.53;;
18170;SDS011;9210;48.358;10.902;2023-04-30T02:27:32;9.33;;;6.10;;
18170;SDS011;9210;48.358;10.902;2023-04-30T02:30:00;11.03;;;6.43;;
18170;SDS011;9210;48.358;10.902;2023-04-30T02:32:29;10.73;;;5.80;;
18170;SDS011;9210;48.358;10.902;2023-04-30T02:34:59;14.30;;;6.60;;
18170;SDS011;9210;48.358;10.902;2023-04-30T02:37:28;8.67;;;5.83;;
18170;SDS011;9210;48.358;10.902;2023-04-30T02:39:57;10.30;;;6.67;;
18170;SDS011;9210;48.358;10.902;2023-04-30T02:42:25;10.50;;;6.10;;
18170;SDS011;9210;48.358;10.902;2023-04-30T02:44:54;8.93;;;5.53;;
18170;SDS011;9210;48.358;10.902;2023-04-30T02:47:22;9.77;;;6.40;;
18170;SDS011;9210;48.358;10.902;2023-04-30T02:49:51;9.63;;;6.17;;
18170;SDS011;9210;48.358;10.902;2023-04-30T02:52:22;11.77;;;6.53;;
18170;SDS011;9210;48.358;10.902;2023-04-30T02:54:51;14.07;;;7.50;;
18170;SDS011;9210;48.358;10.902;2023-04-30T02:57:19;13.97;;;7.50;;
18170;SDS011;9210;48.358;10.902;2023-04-30T02:59:48;12.50;;;7.00;;
18170;SDS011;9210;48.358;10.902;2023-04-30T03:02:17;12.33;;;7.60;;
18170;SDS011;9210;48.358;10.902;2023-04-30T03:04:47;16.77;;;8.10;;
18170;SDS011;9210;48.358;10.902;2023-04-30T03:07:15;14.73;;;7.83;;
18170;SDS011;9210;48.358;10.902;2023-04-30T03:09:45;13.47;;;8.00;;
18170;SDS011;9210;48.358;10.902;2023-04-30T03:12:13;12.47;;;8.07;;
18170;SDS011;9210;48.358;10.902;2023-04-30T03:14:48;12.10;;;6.90;;
18170;SDS011;9210;48.358;10.902;2023-04-30T03:17:17;14.10;;;8.63;;
18170;SDS011;9210;48.358;10.902;2023-04-30T03:19:46;12.83;;;7.47;;
18170;SDS011;9210;48.358;10.902;2023-04-30T03:22:14;13.63;;;7.47;;
18170;SDS011;9210;48.358;10.902;2023-04-30T03:24:46;10.90;;;7.23;;
18170;SDS011;9210;48.358;10.902;2023-04-30T03:27:14;13.57;;;8.03;;
18170;SDS011;9210;48.358;10.902;2023-04-30T03:29:43;14.33;;;7.90;;
18170;SDS011;9210;48.358;10.902;2023-04-30T03:32:12;13.03;;;8.33;;
18170;SDS011;9210;48.358;10.902;2023-04-30T03:34:40;14.33;;;8.00;;
18170;SDS011;9210;48.358;10.902;2023-04-30T03:37:09;13.40;;;8.43;;
18170;SDS011;9210;48.358;10.902;2023-04-30T03:39:37;14.43;;;8.17;;
18170;SDS011;9210;48.358;10.902;2023-04-30T03:42:07;13.23;;;8.30;;
18170;SDS011;9210;48.358;10.902;2023-04-30T03:44:35;13.40;;;8.07;;
18170;SDS011;9210;48.358;10.902;2023-04-30T03:47:04;13.77;;;8.13;;
18170;SDS011;9210;48.358;10.902;2023-04-30T03:49:32;13.53;;;8.30;;
18170;SDS011;9210;48.358;10.902;2023-04-30T03:52:01;13.93;;;8.57;;
18170;SDS011;9210;48.358;10.902;2023-04-30T03:54:31;15.80;;;8.07;;
18170;SDS011;9210;48.358;10.902;2023-04-30T03:57:00;13.50;;;8.40;;
18170;SDS011;9210;48.358;10.902;2023-04-30T03:59:31;14.63;;;7.97;;
18170;SDS011;9210;48.358;10.902;2023-04-30T04:02:00;13.20;;;8.47;;
18170;SDS011;9210;48.358;10.902;2023-04-30T04:04:28;14.07;;;8.67;;
18170;SDS011;9210;48.358;10.902;2023-04-30T04:06:57;15.33;;;9.03;;
18170;SDS011;9210;48.358;10.902;2023-04-30T04:09:26;16.50;;;8.83;;
18170;SDS011;9210;48.358;10.902;2023-04-30T04:11:55;16.10;;;9.17;;
18170;SDS011;9210;48.358;10.902;2023-04-30T04:14:24;14.53;;;8.73;;
18170;SDS011;9210;48.358;10.902;2023-04-30T04:16:54;15.07;;;9.17;;
18170;SDS011;9210;48.358;10.902;2023-04-30T04:19:25;15.17;;;8.60;;
18170;SDS011;9210;48.358;10.902;2023-04-30T04:21:55;14.00;;;8.67;;
18170;SDS011;9210;48.358;10.902;2023-04-30T04:24:24;14.80;;;9.00;;
18170;SDS011;9210;48.358;10.902;2023-04-30T04:26:52;13.67;;;8.50;;
18170;SDS011;9210;48.358;10.902;2023-04-30T04:29:21;13.13;;;8.13;;
18170;SDS011;9210;48.358;10.902;2023-04-30T04:31:49;13.57;;;8.53;;
18170;SDS011;9210;48.358;10.902;2023-04-30T04:34:20;16.47;;;8.53;;
18170;SDS011;9210;48.358;10.902;2023-04-30T04:36:48;12.93;;;8.00;;
18170;SDS011;9210;48.358;10.902;2023-04-30T04:39:16;14.17;;;8.43;;
18170;SDS011;9210;48.358;10.902;2023-04-30T04:41:45;12.60;;;8.07;;
18170;SDS011;9210;48.358;10.902;2023-04-30T04:44:13;14.87;;;9.07;;
18170;SDS011;9210;48.358;10.902;2023-04-30T04:46:41;16.57;;;9.33;;
18170;SDS011;9210;48.358;10.902;2023-04-30T04:49:11;16.67;;;9.40;;
18170;SDS011;9210;48.358;10.902;2023-04-30T04:51:41;16.63;;;10.17;;
18170;SDS011;9210;48.358;10.902;2023-04-30T04:54:09;16.93;;;9.00;;
18170;SDS011;9210;48.358;10.902;2023-04-30T04:56:38;16.23;;;9.47;;
18170;SDS011;9210;48.358;10.902;2023-04-30T04:59:06;14.87;;;8.97;;
18170;SDS011;9210;48.358;10.902;2023-04-30T05:01:35;15.10;;;8.80;;
18170;SDS011;9210;48.358;10.902;2023-04-30T05:04:04;18.00;;;9.33;;
18170;SDS011;9210;48.358;10.902;2023-04-30T05:06:34;15.77;;;8.87;;
18170;SDS011;9210;48.358;10.902;2023-04-30T05:09:04;15.13;;;8.93;;
18170;SDS011;9210;48.358;10.902;2023-04-30T05:11:34;14.77;;;9.03;;
18170;SDS011;9210;48.358;10.902;2023-04-30T05:14:04;15.63;;;9.57;;
18170;SDS011;9210;48.358;10.902;2023-04-30T05:16:33;14.73;;;8.30;;
18170;SDS011;9210;48.358;10.902;2023-04-30T05:19:01;13.27;;;8.70;;
18170;SDS011;9210;48.358;10.902;2023-04-30T05:21:31;15.43;;;9.00;;
18170;SDS011;9210;48.358;10.902;2023-04-30T05:23:59;13.77;;;8.87;;
18170;SDS011;9210;48.358;10.902;2023-04-30T05:26:29;14.37;;;9.47;;
18170;SDS011;9210;48.358;10.902;2023-04-30T05:28:58;16.90;;;9.30;;
18170;SDS011;9210;48.358;10.902;2023-04-30T05:31:27;15.73;;;8.80;;
18170;SDS011;9210;48.358;10.902;2023-04-30T05:33:57;15.67;;;9.43;;
18170;SDS011;9210;48.358;10.902;2023-04-30T05:36:26;15.30;;;8.70;;
18170;SDS011;9210;48.358;10.902;2023-04-30T05:38:54;14.73;;;9.10;;
18170;SDS011;9210;48.358;10.902;2023-04-30T05:41:23;16.77;;;8.70;;
18170;SDS011;9210;48.358;10.902;2023-04-30T05:43:55;15.07;;;9.00;;
18170;SDS011;9210;48.358;10.902;2023-04-30T05:46:24;14.90;;;9.50;;
18170;SDS011;9210;48.358;10.902;2023-04-30T05:48:52;18.23;;;9.63;;
18170;SDS011;9210;48.358;10.902;2023-04-30T05:51:21;19.73;;;9.77;;
18170;SDS011;9210;48.358;10.902;2023-04-30T05:53:50;12.53;;;8.77;;
18170;SDS011;9210;48.358;10.902;2023-04-30T05:56:18;16.33;;;9.77;;
18170;SDS011;9210;48.358;10.902;2023-04-30T05:58:50;13.37;;;9.40;;
18170;SDS011;9210;48.358;10.902;2023-04-30T06:01:20;15.07;;;9.87;;
18170;SDS011;9210;48.358;10.902;2023-04-30T06:03:49;14.60;;;9.60;;
18170;SDS011;9210;48.358;10.902;2023-04-30T06:06:20;14.73;;;9.93;;
18170;SDS011;9210;48.358;10.902;2023-04-30T06:08:49;13.47;;;9.30;;
18170;SDS011;9210;48.358;10.902;2023-04-30T06:11:17;17.07;;;9.50;;
18170;SDS011;9210;48.358;10.902;2023-04-30T06:13:46;15.60;;;9.67;;
18170;SDS011;9210;48.358;10.902;2023-04-30T06:16:15;14.07;;;9.70;;
18170;SDS011;9210;48.358;10.902;2023-04-30T06:18:45;13.60;;;9.40;;
18170;SDS011;9210;48.358;10.902;2023-04-30T06:21:13;15.83;;;9.47;;
18170;SDS011;9210;48.358;10.902;2023-04-30T06:23:42;15.10;;;9.40;;
18170;SDS011;9210;48.358;10.902;2023-04-30T06:26:10;14.87;;;9.47;;
18170;SDS011;9210;48.358;10.902;2023-04-30T06:28:40;15.00;;;9.40;;
18170;SDS011;9210;48.358;10.902;2023-04-30T06:31:09;15.03;;;9.40;;
18170;SDS011;9210;48.358;10.902;2023-04-30T06:33:37;18.40;;;9.40;;
18170;SDS011;9210;48.358;10.902;2023-04-30T06:36:07;14.10;;;9.47;;
18170;SDS011;9210;48.358;10.902;2023-04-30T06:38:35;14.57;;;9.80;;
18170;SDS011;9210;48.358;10.902;2023-04-30T06:41:04;12.43;;;9.00;;
18170;SDS011;9210;48.358;10.902;2023-04-30T06:43:32;13.83;;;9.63;;
18170;SDS011;9210;48.358;10.902;2023-04-30T06:46:01;14.27;;;8.30;;
18170;SDS011;9210;48.358;10.902;2023-04-30T06:48:30;13.10;;;9.30;;
18170;SDS011;9210;48.358;10.902;2023-04-30T06:50:58;14.27;;;9.13;;
18170;SDS011;9210;48.358;10.902;2023-04-30T06:53:28;13.77;;;8.93;;
18170;SDS011;9210;48.358;10.902;2023-04-30T06:55:57;14.40;;;8.70;;
18170;SDS011;9210;48.358;10.902;2023-04-30T06:58:26;13.00;;;8.97;;
18170;SDS011;9210;48.358;10.902;2023-04-30T07:00:55;12.10;;;8.03;;
18170;SDS011;9210;48.358;10.902;2023-04-30T07:03:23;12.30;;;8.70;;
18170;SDS011;9210;48.358;10.902;2023-04-30T07:05:52;13.00;;;8.67;;
18170;SDS011;9210;48.358;10.902;2023-04-30T07:08:21;14.47;;;8.80;;
18170;SDS011;9210;48.358;10.902;2023-04-30T07:10:51;13.43;;;8.10;;
18170;SDS011;9210;48.358;10.902;2023-04-30T07:13:19;13.00;;;8.50;;
18170;SDS011;9210;48.358;10.902;2023-04-30T07:15:48;12.13;;;7.90;;
18170;SDS011;9210;48.358;10.902;2023-04-30T07:18:17;11.50;;;8.03;;
18170;SDS011;9210;48.358;10.902;2023-04-30T07:20:45;11.13;;;7.33;;
18170;SDS011;9210;48.358;10.902;2023-04-30T07:23:14;14.30;;;8.13;;
18170;SDS011;9210;48.358;10.902;2023-04-30T07:25:43;12.43;;;8.10;;
18170;SDS011;9210;48.358;10.902;2023-04-30T07:28:13;10.30;;;7.10;;
18170;SDS011;9210;48.358;10.902;2023-04-30T07:30:41;12.40;;;7.50;;
18170;SDS011;9210;48.358;10.902;2023-04-30T07:33:10;11.40;;;7.47;;
18170;SDS011;9210;48.358;10.902;2023-04-30T07:35:42;12.50;;;6.90;;
18170;SDS011;9210;48.358;10.902;2023-04-30T07:38:10;10.10;;;6.87;;
18170;SDS011;9210;48.358;10.902;2023-04-30T07:40:39;10.93;;;6.47;;
18170;SDS011;9210;48.358;10.902;2023-04-30T07:43:07;11.03;;;5.90;;
18170;SDS011;9210;48.358;10.902;2023-04-30T07:45:38;10.67;;;6.07;;
18170;SDS011;9210;48.358;10.902;2023-04-30T07:48:07;9.70;;;5.97;;
18170;SDS011;9210;48.358;10.902;2023-04-30T07:50:36;8.50;;;6.10;;
18170;SDS011;9210;48.358;10.902;2023-04-30T07:53:05;9.27;;;5.57;;
18170;SDS011;9210;48.358;10.902;2023-04-30T07:55:35;8.73;;;5.60;;
18170;SDS011;9210;48.358;10.902;2023-04-30T07:58:03;9.27;;;6.13;;
18170;SDS011;9210;48.358;10.902;2023-04-30T08:00:32;7.40;;;5.50;;
18170;SDS011;9210;48.358;10.902;2023-04-30T08:03:02;9.23;;;6.23;;
18170;SDS011;9210;48.358;10.902;2023-04-30T08:05:30;9.20;;;5.60;;
18170;SDS011;9210;48.358;10.902;2023-04-30T08:07:59;7.47;;;5.10;;
18170;SDS011;9210;48.358;10.902;2023-04-30T08:10:27;8.20;;;5.60;;
18170;SDS011;9210;48.358;10.902;2023-04-30T08:12:56;6.97;;;4.87;;
18170;SDS011;9210;48.358;10.902;2023-04-30T08:15:25;6.93;;;4.80;;
18170;SDS011;9210;48.358;10.902;2023-04-30T08:17:55;8.10;;;5.20;;
18170;SDS011;9210;48.358;10.902;2023-04-30T08:20:25;7.57;;;4.90;;
18170;SDS011;9210;48.358;10.902;2023-04-30T08:22:54;7.60;;;4.57;;
18170;SDS011;9210;48.358;10.902;2023-04-30T08:25:22;7.07;;;4.63;;
18170;SDS011;9210;48.358;10.902;2023-04-30T08:27:52;7.13;;;4.43;;
18170;SDS011;9210;48.358;10.902;2023-04-30T08:30:21;6.67;;;4.63;;
18170;SDS011;9210;48.358;10.902;2023-04-30T08:32:50;6.23;;;4.37;;
18170;SDS011;9210;48.358;10.902;2023-04-30T08:35:22;5.50;;;4.23;;
18170;SDS011;9210;48.358;10.902;2023-04-30T08:37:52;6.47;;;4.40;;
18170;SDS011;9210;48.358;10.902;2023-04-30T08:40:21;7.30;;;4.80;;
18170;SDS011;9210;48.358;10.902;2023-04-30T08:43:09;6.50;;;4.47;;
18170;SDS011;9210;48.358;10.902;2023-04-30T08:45:38;6.70;;;4.20;;
18170;SDS011;9210;48.358;10.902;2023-04-30T08:48:08;6.67;;;4.77;;
18170;SDS011;9210;48.358;10.902;2023-04-30T08:50:37;8.00;;;4.80;;
18170;SDS011;9210;48.358;10.902;2023-04-30T08:53:07;7.33;;;4.70;;
18170;SDS011;9210;48.358;10.902;2023-04-30T08:55:37;7.17;;;4.63;;
18170;SDS011;9210;48.358;10.902;2023-04-30T08:58:07;10.57;;;4.50;;
18170;SDS011;9210;48.358;10.902;2023-04-30T09:00:36;5.90;;;4.30;;
18170;SDS011;9210;48.358;10.902;2023-04-30T09:03:05;5.40;;;3.87;;
18170;SDS011;9210;48.358;10.902;2023-04-30T09:05:35;6.50;;;3.90;;
18170;SDS011;9210;48.358;10.902;2023-04-30T09:08:04;5.60;;;3.60;;
18170;SDS011;9210;48.358;10.902;2023-04-30T09:10:35;5.50;;;3.43;;
18170;SDS011;9210;48.358;10.902;2023-04-30T09:13:05;7.73;;;4.57;;
18170;SDS011;9210;48.358;10.902;2023-04-30T09:15:35;5.60;;;4.03;;
18170;SDS011;9210;48.358;10.902;2023-04-30T09:18:09;6.47;;;4.33;;
18170;SDS011;9210;48.358;10.902;2023-04-30T09:20:38;6.73;;;4.40;;
18170;SDS011;9210;48.358;10.902;2023-04-30T09:23:20;7.00;;;4.33;;
18170;SDS011;9210;48.358;10.902;2023-04-30T09:25:50;5.40;;;4.10;;
18170;SDS011;9210;48.358;10.902;2023-04-30T09:28:19;6.97;;;4.80;;
18170;SDS011;9210;48.358;10.902;2023-04-30T09:30:51;5.80;;;3.90;;
18170;SDS011;9210;48.358;10.902;2023-04-30T09:33:19;6.17;;;4.40;;
18170;SDS011;9210;48.358;10.902;2023-04-30T09:35:48;4.87;;;3.80;;
18170;SDS011;9210;48.358;10.902;2023-04-30T09:38:26;7.73;;;4.17;;
18170;SDS011;9210;48.358;10.902;2023-04-30T09:40:58;5.90;;;4.27;;
18170;SDS011;9210;48.358;10.902;2023-04-30T09:43:27;5.93;;;4.17;;
18170;SDS011;9210;48.358;10.902;2023-04-30T09:45:56;7.23;;;3.90;;
18170;SDS011;9210;48.358;10.902;2023-04-30T09:48:25;5.27;;;4.00;;
18170;SDS011;9210;48.358;10.902;2023-04-30T09:50:54;8.57;;;4.27;;
18170;SDS011;9210;48.358;10.902;2023-04-30T09:53:23;6.00;;;4.10;;
18170;SDS011;9210;48.358;10.902;2023-04-30T09:55:52;8.37;;;4.83;;
18170;SDS011;9210;48.358;10.902;2023-04-30T09:58:26;6.73;;;3.80;;
18170;SDS011;9210;48.358;10.902;2023-04-30T10:00:56;7.03;;;4.30;;
18170;SDS011;9210;48.358;10.902;2023-04-30T10:03:25;4.83;;;3.87;;
18170;SDS011;9210;48.358;10.902;2023-04-30T10:05:54;5.47;;;3.77;;
18170;SDS011;9210;48.358;10.902;2023-04-30T10:08:23;7.87;;;4.00;;
18170;SDS011;9210;48.358;10.902;2023-04-30T10:10:55;5.40;;;3.70;;
18170;SDS011;9210;48.358;10.902;2023-04-30T10:13:30;5.37;;;3.97;;
18170;SDS011;9210;48.358;10.902;2023-04-30T10:16:00;6.33;;;4.20;;
18170;SDS011;9210;48.358;10.902;2023-04-30T10:18:30;5.83;;;3.80;;
18170;SDS011;9210;48.358;10.902;2023-04-30T10:21:00;7.67;;;3.50;;
18170;SDS011;9210;48.358;10.902;2023-04-30T10:23:31;5.77;;;3.40;;
18170;SDS011;9210;48.358;10.902;2023-04-30T10:26:00;6.23;;;3.50;;
18170;SDS011;9210;48.358;10.902;2023-04-30T10:28:30;6.17;;;4.00;;
18170;SDS011;9210;48.358;10.902;2023-04-30T10:30:59;6.23;;;3.80;;
18170;SDS011;9210;48.358;10.902;2023-04-30T10:33:30;3.93;;;3.10;;
18170;SDS011;9210;48.358;10.902;2023-04-30T10:36:00;4.50;;;3.27;;
18170;SDS011;9210;48.358;10.902;2023-04-30T10:38:31;4.43;;;3.50;;
18170;SDS011;9210;48.358;10.902;2023-04-30T10:41:00;5.93;;;3.70;;
18170;SDS011;9210;48.358;10.902;2023-04-30T10:43:31;4.50;;;3.77;;
18170;SDS011;9210;48.358;10.902;2023-04-30T10:46:00;5.57;;;4.13;;
18170;SDS011;9210;48.358;10.902;2023-04-30T10:48:30;5.73;;;3.60;;
18170;SDS011;9210;48.358;10.902;2023-04-30T10:51:01;4.80;;;3.47;;
18170;SDS011;9210;48.358;10.902;2023-04-30T10:53:30;5.07;;;3.80;;
18170;SDS011;9210;48.358;10.902;2023-04-30T10:56:00;4.70;;;3.50;;
18170;SDS011;9210;48.358;10.902;2023-04-30T10:58:33;8.67;;;3.30;;
18170;SDS011;9210;48.358;10.902;2023-04-30T11:01:03;5.63;;;3.43;;
18170;SDS011;9210;48.358;10.902;2023-04-30T11:03:33;5.40;;;3.50;;
18170;SDS011;9210;48.358;10.902;2023-04-30T11:06:06;6.23;;;3.30;;
18170;SDS011;9210;48.358;10.902;2023-04-30T11:08:35;6.17;;;3.50;;
18170;SDS011;9210;48.358;10.902;2023-04-30T11:11:07;6.23;;;3.30;;
18170;SDS011;9210;48.358;10.902;2023-04-30T11:13:41;3.77;;;3.10;;
18170;SDS011;9210;48.358;10.902;2023-04-30T11:16:11;4.87;;;3.17;;
18170;SDS011;9210;48.358;10.902;2023-04-30T11:18:40;4.00;;;2.90;;
18170;SDS011;9210;48.358;10.902;2023-04-30T11:21:10;3.73;;;2.80;;
18170;SDS011;9210;48.358;10.902;2023-04-30T11:23:41;4.30;;;2.80;;
18170;SDS011;9210;48.358;10.902;2023-04-30T11:26:10;5.63;;;3.00;;
18170;SDS011;9210;48.358;10.902;2023-04-30T11:28:48;3.43;;;2.63;;
18170;SDS011;9210;48.358;10.902;2023-04-30T11:31:19;3.83;;;2.90;;
18170;SDS011;9210;48.358;10.902;2023-04-30T11:33:48;4.53;;;2.77;;
18170;SDS011;9210;48.358;10.902;2023-04-30T11:36:18;3.50;;;2.80;;
18170;SDS011;9210;48.358;10.902;2023-04-30T11:38:46;3.57;;;2.90;;
18170;SDS011;9210;48.358;10.902;2023-04-30T11:41:16;3.47;;;2.80;;
18170;SDS011;9210;48.358;10.902;2023-04-30T11:43:48;4.20;;;2.60;;
18170;SDS011;9210;48.358;10.902;2023-04-30T11:46:17;4.03;;;3.10;;
18170;SDS011;9210;48.358;10.902;2023-04-30T11:48:46;8.30;;;3.27;;
18170;SDS011;9210;48.358;10.902;2023-04-30T11:51:15;3.50;;;2.90;;
18170;SDS011;9210;48.358;10.902;2023-04-30T11:53:44;5.50;;;3.30;;
18170;SDS011;9210;48.358;10.902;2023-04-30T11:56:19;3.90;;;2.93;;
18170;SDS011;9210;48.358;10.902;2023-04-30T11:58:51;6.03;;;3.10;;
18170;SDS011;9210;48.358;10.902;2023-04-30T12:01:21;4.13;;;2.70;;
18170;SDS011;9210;48.358;10.902;2023-04-30T12:03:55;4.47;;;2.67;;
18170;SDS011;9210;48.358;10.902;2023-04-30T12:06:25;4.13;;;2.90;;
18170;SDS011;9210;48.358;10.902;2023-04-30T12:08:57;3.47;;;2.87;;
18170;SDS011;9210;48.358;10.902;2023-04-30T12:11:29;3.57;;;2.60;;
18170;SDS011;9210;48.358;10.902;2023-04-30T12:14:01;3.95;;;2.75;;
18170;SDS011;9210;48.358;10.902;2023-04-30T12:16:40;4.13;;;2.95;;
18170;SDS011;9210;48.358;10.902;2023-04-30T12:19:11;5.60;;;3.20;;
18170;SDS011;9210;48.358;10.902;2023-04-30T12:21:40;4.27;;;2.80;;
18170;SDS011;9210;48.358;10.902;2023-04-30T12:24:11;4.30;;;3.07;;
18170;SDS011;9210;48.358;10.902;2023-04-30T12:26:41;5.37;;;3.47;;
18170;SDS011;9210;48.358;10.902;2023-04-30T12:29:14;5.67;;;3.23;;
18170;SDS011;9210;48.358;10.902;2023-04-30T12:31:43;3.97;;;3.00;;
18170;SDS011;9210;48.358;10.902;2023-04-30T12:34:18;4.77;;;3.03;;
18170;SDS011;9210;48.358;10.902;2023-04-30T12:36:47;5.27;;;2.80;;
18170;SDS011;9210;48.358;10.902;2023-04-30T12:39:18;4.90;;;2.75;;
18170;SDS011;9210;48.358;10.902;2023-04-30T12:41:47;4.50;;;2.70;;
18170;SDS011;9210;48.358;10.902;2023-04-30T12:44:18;5.57;;;3.00;;
18170;SDS011;9210;48.358;10.902;2023-04-30T12:46:48;4.57;;;3.00;;
18170;SDS011;9210;48.358;10.902;2023-04-30T12:49:25;4.77;;;3.10;;
18170;SDS011;9210;48.358;10.902;2023-04-30T12:51:57;5.10;;;3.20;;
18170;SDS011;9210;48.358;10.902;2023-04-30T12:54:26;4.47;;;3.07;;
18170;SDS011;9210;48.358;10.902;2023-04-30T12:56:58;7.25;;;3.08;;
18170;SDS011;9210;48.358;10.902;2023-04-30T12:59:29;4.93;;;2.53;;
18170;SDS011;9210;48.358;10.902;2023-04-30T13:07:51;3.53;;;2.33;;
18170;SDS011;9210;48.358;10.902;2023-04-30T13:10:21;3.45;;;2.42;;
18170;SDS011;9210;48.358;10.902;2023-04-30T13:15:43;3.85;;;3.00;;
18170;SDS011;9210;48.358;10.902;2023-04-30T13:18:17;4.07;;;2.83;;
18170;SDS011;9210;48.358;10.902;2023-04-30T13:20:55;3.58;;;2.53;;
18170;SDS011;9210;48.358;10.902;2023-04-30T13:23:26;4.28;;;2.90;;
18170;SDS011;9210;48.358;10.902;2023-04-30T13:26:19;3.50;;;2.50;;
18170;SDS011;9210;48.358;10.902;2023-04-30T13:28:51;5.37;;;2.83;;
18170;SDS011;9210;48.358;10.902;2023-04-30T13:31:22;5.10;;;2.73;;
18170;SDS011;9210;48.358;10.902;2023-04-30T13:33:55;5.93;;;2.58;;
18170;SDS011;9210;48.358;10.902;2023-04-30T13:36:27;4.43;;;2.40;;
18170;SDS011;9210;48.358;10.902;2023-04-30T13:39:50;3.53;;;2.20;;
18170;SDS011;9210;48.358;10.902;2023-04-30T13:42:24;4.77;;;2.57;;
18170;SDS011;9210;48.358;10.902;2023-04-30T13:44:57;2.80;;;2.10;;
18170;SDS011;9210;48.358;10.902;2023-04-30T13:47:34;6.85;;;2.50;;
18170;SDS011;9210;48.358;10.902;2023-04-30T13:50:04;5.97;;;2.67;;
18170;SDS011;9210;48.358;10.902;2023-04-30T13:52:35;4.03;;;2.40;;
18170;SDS011;9210;48.358;10.902;2023-04-30T13:55:06;4.07;;;2.42;;
18170;SDS011;9210;48.358;10.902;2023-04-30T13:57:40;5.35;;;2.60;;
18170;SDS011;9210;48.358;10.902;2023-04-30T14:00:10;3.63;;;2.17;;
18170;SDS011;9210;48.358;10.902;2023-04-30T14:02:51;3.92;;;2.55;;
18170;SDS011;9210;48.358;10.902;2023-04-30T14:05:21;4.55;;;2.25;;
18170;SDS011;9210;48.358;10.902;2023-04-30T14:07:50;5.28;;;2.35;;
18170;SDS011;9210;48.358;10.902;2023-04-30T14:10:24;4.22;;;2.30;;
18170;SDS011;9210;48.358;10.902;2023-04-30T14:13:14;3.17;;;2.25;;
18170;SDS011;9210;48.358;10.902;2023-04-30T14:15:48;3.13;;;2.17;;
18170;SDS011;9210;48.358;10.902;2023-04-30T14:18:20;3.45;;;2.10;;
18170;SDS011;9210;48.358;10.902;2023-04-30T14:20:50;3.30;;;2.40;;
18170;SDS011;9210;48.358;10.902;2023-04-30T14:23:22;4.40;;;2.30;;
18170;SDS011;9210;48.358;10.902;2023-04-30T14:25:54;3.45;;;2.72;;
18170;SDS011;9210;48.358;10.902;2023-04-30T14:28:23;3.22;;;2.10;;
18170;SDS011;9210;48.358;10.902;2023-04-30T14:30:53;3.88;;;2.08;;
18170;SDS011;9210;48.358;10.902;2023-04-30T14:33:24;4.57;;;2.33;;
18170;SDS011;9210;48.358;10.902;2023-04-30T14:35:53;3.00;;;2.28;;
18170;SDS011;9210;48.358;10.902;2023-04-30T14:38:29;2.95;;;2.25;;
18170;SDS011;9210;48.358;10.902;2023-04-30T14:41:05;3.67;;;2.20;;
18170;SDS011;9210;48.358;10.902;2023-04-30T14:43:38;3.60;;;2.10;;
18170;SDS011;9210;48.358;10.902;2023-04-30T14:46:11;4.57;;;2.42;;
18170;SDS011;9210;48.358;10.902;2023-04-30T14:48:43;6.28;;;3.10;;
18170;SDS011;9210;48.358;10.902;2023-04-30T14:51:15;5.03;;;3.00;;
18170;SDS011;9210;48.358;10.902;2023-04-30T14:53:47;5.18;;;2.60;;
18170;SDS011;9210;48.358;10.902;2023-04-30T14:56:28;2.58;;;2.03;;
18170;SDS011;9210;48.358;10.902;2023-04-30T14:58:57;3.17;;;2.25;;
18170;SDS011;9210;48.358;10.902;2023-04-30T15:01:26;2.63;;;1.90;;
18170;SDS011;9210;48.358;10.902;2023-04-30T15:03:57;2.28;;;2.05;;
18170;SDS011;9210;48.358;10.902;2023-04-30T15:06:28;4.65;;;2.45;;
18170;SDS011;9210;48.358;10.902;2023-04-30T15:08:57;4.05;;;2.30;;
18170;SDS011;9210;48.358;10.902;2023-04-30T15:11:26;4.20;;;2.70;;
18170;SDS011;9210;48.358;10.902;2023-04-30T15:13:57;3.47;;;2.40;;